Time;durP1;ratioP1;P1;durP2;ratioP2;P2;SDS_P1;SDS_P2;PMS_P1;PMS_P2;Temp;Humidity;BMP_temperature;BMP_pressure;BME280_temperature;BME280_humidity;BME280_pressure;Samples;Min_cycle;Max_cycle;Signal;HPM_P1;HPM_P2
2023/10/15 00:00:13;;;;;;;0.93;0.93;;;;;;;9.56;65.27;97466.31;5048324;28;20045;-74
2023/10/15 00:02:42;;;;;;;0.50;0.50;;;;;;;9.71;64.81;97482.25;5051088;28;20479;-74
2023/10/15 00:05:12;;;;;;;0.68;0.68;;;;;;;9.66;64.79;97468.66;5051634;28;20029;-74
2023/10/15 00:07:39;;;;;;;0.40;0.40;;;;;;;9.68;65.31;97467.47;5052123;28;20033;-74
2023/10/15 00:10:10;;;;;;;0.70;0.70;;;;;;;9.74;65.44;97463.22;5052006;28;20146;-74
2023/10/15 00:12:39;;;;;;;0.68;0.68;;;;;;;9.84;65.00;97471.72;5050680;28;20072;-75
2023/10/15 00:15:11;;;;;;;0.47;0.47;;;;;;;9.78;64.98;97470.63;5050781;28;20045;-76
2023/10/15 00:17:42;;;;;;;0.65;0.65;;;;;;;9.84;65.11;97467.22;5051885;28;20045;-76
2023/10/15 00:20:14;;;;;;;0.38;0.38;;;;;;;9.75;64.83;97463.03;5052432;28;20384;-76
2023/10/15 00:22:43;;;;;;;0.60;0.60;;;;;;;9.68;65.14;97462.13;5050789;28;20041;-76
2023/10/15 00:25:13;;;;;;;0.60;0.60;;;;;;;9.71;65.17;97463.59;5050873;28;20044;-76
2023/10/15 00:27:41;;;;;;;0.63;0.63;;;;;;;9.73;64.66;97462.41;5051021;28;20037;-76
2023/10/15 00:30:13;;;;;;;0.55;0.55;;;;;;;9.79;64.43;97456.28;5050226;28;20041;-74
2023/10/15 00:32:43;;;;;;;0.60;0.60;;;;;;;9.67;64.71;97463.16;5050706;28;20094;-74
2023/10/15 00:35:13;;;;;;;0.60;0.60;;;;;;;9.62;65.09;97470.09;5047848;28;20044;-74
2023/10/15 00:37:46;;;;;;;0.50;0.50;;;;;;;9.44;65.76;97474.03;5048671;28;20164;-74
2023/10/15 00:40:16;;;;;;;0.45;0.45;;;;;;;9.29;66.48;97467.94;5049969;28;20079;-74
2023/10/15 00:42:45;;;;;;;0.52;0.52;;;;;;;9.35;66.32;97469.81;5050760;28;20056;-74
2023/10/15 00:45:14;;;;;;;0.60;0.60;;;;;;;9.28;66.58;97465.44;5049981;28;20037;-75
2023/10/15 00:47:44;;;;;;;0.50;0.50;;;;;;;9.14;66.93;97469.81;5049708;28;20099;-76
2023/10/15 00:50:14;;;;;;;0.80;0.80;;;;;;;9.20;66.76;97458.41;5051442;28;20041;-75
2023/10/15 00:52:43;;;;;;;0.63;0.63;;;;;;;9.19;67.30;97452.25;5052355;28;20119;-75
2023/10/15 00:55:17;;;;;;;0.70;0.70;;;;;;;9.25;66.71;97448.00;5050156;28;20033;-74
2023/10/15 00:57:46;;;;;;;0.70;0.70;;;;;;;9.19;66.45;97449.59;5050763;28;20053;-74
2023/10/15 01:00:47;;;;;;;0.70;0.70;;;;;;;9.06;66.75;97456.63;5050945;28;20045;-73
2023/10/15 01:03:17;;;;;;;0.45;0.45;;;;;;;8.94;66.58;97466.09;5049852;28;20095;-73
2023/10/15 01:05:53;;;;;;;0.50;0.50;;;;;;;8.84;67.35;97467.22;5050795;28;20033;-74
2023/10/15 01:08:28;;;;;;;0.50;0.50;;;;;;;8.83;67.73;97462.91;5051541;28;20059;-73
2023/10/15 01:11:09;;;;;;;0.50;0.50;;;;;;;8.92;67.37;97470.81;5049749;28;20100;-73
2023/10/15 01:13:38;;;;;;;0.63;0.63;;;;;;;8.91;66.19;97474.47;5049343;28;20127;-73
2023/10/15 01:16:08;;;;;;;0.50;0.50;;;;;;;8.82;66.41;97463.91;5049253;28;20206;-74
2023/10/15 01:18:38;;;;;;;0.50;0.50;;;;;;;8.80;66.11;97470.47;5052370;28;20045;-74
2023/10/15 01:21:09;;;;;;;0.55;0.55;;;;;;;8.75;65.79;97462.19;5051229;28;20045;-75
2023/10/15 01:23:54;;;;;;;0.50;0.50;;;;;;;8.71;66.06;97471.59;5049881;28;20052;-74
2023/10/15 01:26:25;;;;;;;0.47;0.47;;;;;;;8.79;65.73;97479.44;5049537;28;20135;-74
2023/10/15 01:28:54;;;;;;;0.63;0.63;;;;;;;8.77;65.59;97473.47;5051978;28;20558;-74
2023/10/15 01:31:24;;;;;;;0.98;0.98;;;;;;;8.79;65.67;97482.13;5051509;28;20049;-76
2023/10/15 01:33:53;;;;;;;0.90;0.90;;;;;;;8.66;65.77;97472.13;5050920;28;20120;-75
2023/10/15 01:36:27;;;;;;;0.45;0.45;;;;;;;8.80;66.24;97483.75;5050385;28;20033;-75
2023/10/15 01:38:58;;;;;;;0.40;0.40;;;;;;;8.93;65.72;97483.91;5048795;28;20532;-75
2023/10/15 01:41:27;;;;;;;0.65;0.65;;;;;;;9.01;66.48;97485.66;5050054;28;20072;-75
2023/10/15 01:43:56;;;;;;;0.50;0.50;;;;;;;8.95;67.44;97483.72;5049148;28;20063;-75
2023/10/15 01:46:40;;;;;;;0.35;0.35;;;;;;;8.94;67.72;97480.22;5048282;28;20416;-75
2023/10/15 01:49:16;;;;;;;0.65;0.65;;;;;;;8.96;68.03;97475.56;5047860;28;20068;-75
2023/10/15 01:51:44;;;;;;;0.50;0.50;;;;;;;8.98;67.37;97483.34;5049640;28;20055;-75
2023/10/15 01:54:12;;;;;;;0.50;0.50;;;;;;;8.96;67.18;97475.56;5049486;28;20110;-75
2023/10/15 01:56:44;;;;;;;0.50;0.50;;;;;;;8.84;67.23;97472.53;5049731;28;20076;-75
2023/10/15 01:59:12;;;;;;;0.52;0.52;;;;;;;8.84;67.57;97464.56;5048287;28;20049;-75
2023/10/15 02:01:49;;;;;;;0.60;0.60;;;;;;;8.76;67.24;97471.84;5049726;28;20049;-76
2023/10/15 02:04:21;;;;;;;0.65;0.65;;;;;;;8.77;67.27;97473.47;5051901;28;20583;-75
2023/10/15 02:06:50;;;;;;;0.45;0.45;;;;;;;8.71;67.01;97472.41;5052667;28;20123;-75
2023/10/15 02:09:21;;;;;;;0.52;0.52;;;;;;;8.67;67.12;97475.63;5048978;28;20057;-74
2023/10/15 02:11:54;;;;;;;0.73;0.73;;;;;;;8.62;67.38;97464.69;5049532;28;20061;-74
2023/10/15 02:14:23;;;;;;;0.60;0.60;;;;;;;8.68;67.38;97471.94;5046021;28;20075;-75
2023/10/15 02:16:53;;;;;;;0.55;0.55;;;;;;;8.58;67.09;97471.41;5051228;28;20069;-75
2023/10/15 02:19:34;;;;;;;0.50;0.50;;;;;;;8.51;66.75;97467.84;5049208;28;20040;-75
2023/10/15 02:22:02;;;;;;;0.55;0.55;;;;;;;8.53;66.68;97473.78;5047607;28;20110;-75
2023/10/15 02:24:33;;;;;;;1.13;1.13;;;;;;;8.49;66.69;97465.38;5048872;28;20048;-75
2023/10/15 02:27:06;;;;;;;0.60;0.60;;;;;;;8.49;66.78;97470.69;5047365;28;20086;-75
2023/10/15 02:29:36;;;;;;;0.47;0.47;;;;;;;8.38;66.67;97468.47;5048920;28;20066;-75
2023/10/15 02:32:20;;;;;;;0.60;0.60;;;;;;;8.26;66.94;97469.91;5050437;28;20111;-75
2023/10/15 02:34:51;;;;;;;0.65;0.65;;;;;;;8.11;67.13;97472.56;5048450;22;20095;-73
2023/10/15 02:37:19;;;;;;;0.57;0.57;;;;;;;8.16;67.55;97475.50;4990183;28;20141;-73
2023/10/15 02:39:50;;;;;;;0.43;0.43;;;;;;;8.13;67.63;97485.66;4989098;28;20057;-74
2023/10/15 02:42:30;;;;;;;0.57;0.57;;;;;;;8.07;68.06;97481.91;4990755;28;20046;-74
2023/10/15 02:44:59;;;;;;;;;;;;;;;8.06;68.15;97481.09;4991148;28;20100;-74
2023/10/15 02:47:31;;;;;;;0.43;0.43;;;;;;;7.95;67.47;97478.03;4990733;28;20804;-74
2023/10/15 02:50:02;;;;;;;;;;;;;;;7.98;67.58;97478.53;4990529;28;20046;-75
2023/10/15 02:52:42;;;;;;;0.50;0.50;;;;;;;7.90;67.71;97477.75;4992168;28;19932;-75
2023/10/15 02:55:14;;;;;;;0.73;0.68;;;;;;;7.88;67.47;97480.59;4989711;28;20112;-74
2023/10/15 02:57:44;;;;;;;0.55;0.55;;;;;;;7.80;67.08;97474.53;4991946;28;20497;-71
2023/10/15 03:00:18;;;;;;;0.50;0.50;;;;;;;7.82;67.00;97480.47;4989480;28;20065;-72
2023/10/15 03:02:47;;;;;;;0.57;0.57;;;;;;;7.67;67.15;97489.25;4985373;28;20168;-74
2023/10/15 03:05:16;;;;;;;0.43;0.43;;;;;;;7.58;67.07;97487.66;4989172;28;20045;-75
2023/10/15 03:07:45;;;;;;;0.60;0.60;;;;;;;7.42;67.34;97486.97;4989194;28;20110;-75
2023/10/15 03:10:21;;;;;;;0.93;0.93;;;;;;;7.42;67.88;97495.75;4990493;28;20050;-75
2023/10/15 03:12:50;;;;;;;0.57;0.57;;;;;;;7.34;67.97;97494.00;4992962;28;20512;-74
2023/10/15 03:15:20;;;;;;;0.60;0.60;;;;;;;7.44;67.83;97487.63;4992966;28;20050;-74
2023/10/15 03:17:48;;;;;;;0.60;0.60;;;;;;;7.42;67.83;97493.09;4992911;28;20112;-74
2023/10/15 03:20:26;;;;;;;0.80;0.80;;;;;;;7.43;67.59;97492.09;4995085;28;20057;-75
2023/10/15 03:22:59;;;;;;;0.63;0.63;;;;;;;7.46;67.62;97493.59;4994426;28;20069;-75
2023/10/15 03:25:28;;;;;;;0.75;0.75;;;;;;;7.46;67.93;97494.41;4991669;28;20050;-73
2023/10/15 03:28:00;;;;;;;0.60;0.60;;;;;;;7.43;68.03;97500.06;4993956;28;20042;-75
2023/10/15 03:30:32;;;;;;;;;;;;;;;7.36;68.53;97494.66;4995558;28;20141;-74
2023/10/15 03:33:01;;;;;;;0.60;0.60;;;;;;;7.57;68.13;97501.97;4992589;28;20452;-73
2023/10/15 03:35:37;;;;;;;0.57;0.57;;;;;;;7.46;68.50;97505.03;4993467;28;20085;-74
2023/10/15 03:38:07;;;;;;;0.68;0.68;;;;;;;7.40;68.99;97503.06;4993514;28;20034;-76
2023/10/15 03:40:41;;;;;;;0.70;0.70;;;;;;;7.39;69.14;97498.75;4994128;28;20046;-74
2023/10/15 03:43:16;;;;;;;0.90;0.90;;;;;;;7.37;69.72;97498.13;4993429;28;20053;-74
2023/10/15 03:45:51;;;;;;;0.77;0.77;;;;;;;7.42;69.37;97502.91;4992824;28;20117;-75
2023/10/15 03:48:21;;;;;;;0.77;0.77;;;;;;;7.27;69.90;97508.13;4993450;28;20058;-75
2023/10/15 03:50:55;;;;;;;0.57;0.57;;;;;;;7.24;70.45;97511.16;4993016;28;20049;-73
2023/10/15 03:53:27;;;;;;;0.70;0.70;;;;;;;7.24;70.46;97511.97;4993865;28;20117;-75
2023/10/15 03:55:57;;;;;;;0.60;0.60;;;;;;;7.14;70.73;97516.69;4993911;28;20042;-75
2023/10/15 03:58:26;;;;;;;0.73;0.73;;;;;;;7.11;71.14;97511.72;4992950;28;20061;-76
2023/10/15 04:01:11;;;;;;;0.60;0.60;;;;;;;7.04;71.60;97515.25;4992425;28;20054;-75
2023/10/15 04:03:42;;;;;;;0.65;0.65;;;;;;;7.04;71.40;97510.78;4993832;28;20056;-75
2023/10/15 04:06:13;;;;;;;0.80;0.80;;;;;;;6.95;71.83;97511.81;4993270;28;20038;-74
2023/10/15 04:08:59;;;;;;;0.80;0.80;;;;;;;6.91;72.76;97507.84;4993835;28;20047;-74
2023/10/15 04:11:31;;;;;;;0.85;0.85;;;;;;;6.93;72.72;97503.22;4994629;28;20129;-74
2023/10/15 04:14:04;;;;;;;0.70;0.70;;;;;;;6.94;72.91;97502.22;4994491;28;20064;-74
2023/10/15 04:16:34;;;;;;;0.65;0.65;;;;;;;6.93;73.29;97504.03;4994006;28;20060;-75
2023/10/15 04:19:02;;;;;;;0.77;0.77;;;;;;;6.88;73.10;97501.06;4994795;28;20049;-75
2023/10/15 04:21:29;;;;;;;0.73;0.73;;;;;;;6.87;73.20;97496.75;4993037;28;20048;-76
2023/10/15 04:23:57;;;;;;;0.80;0.80;;;;;;;6.76;73.85;97498.97;4993505;28;20042;-77
2023/10/15 04:26:29;;;;;;;0.75;0.75;;;;;;;6.71;74.12;97501.31;4992624;28;20050;-76
2023/10/15 04:28:57;;;;;;;0.43;0.43;;;;;;;6.67;74.44;97502.66;4992181;28;20417;-75
2023/10/15 04:31:29;;;;;;;0.85;0.85;;;;;;;6.62;74.61;97504.00;4992364;28;20069;-75
2023/10/15 04:33:58;;;;;;;0.45;0.45;;;;;;;6.42;75.27;97510.72;4990543;28;20549;-76
2023/10/15 04:36:26;;;;;;;0.80;0.80;;;;;;;6.43;75.62;97498.28;4992310;28;20046;-76
2023/10/15 04:39:08;;;;;;;0.57;0.57;;;;;;;6.38;75.77;97498.78;4992724;28;20042;-76
2023/10/15 04:41:36;;;;;;;0.75;0.75;;;;;;;6.44;75.34;97495.44;4991992;28;20042;-73
2023/10/15 04:44:04;;;;;;;0.75;0.75;;;;;;;6.43;75.47;97485.88;4992367;28;20050;-75
2023/10/15 04:46:40;;;;;;;0.77;0.77;;;;;;;6.44;75.03;97492.78;4993377;28;20445;-76
2023/10/15 04:49:10;;;;;;;1.42;1.42;;;;;;;6.39;75.57;97495.16;4993476;28;21684;-75
2023/10/15 04:51:43;;;;;;;0.40;0.40;;;;;;;6.36;75.77;97492.81;4993461;28;20382;-75
2023/10/15 04:54:11;;;;;;;0.60;0.60;;;;;;;6.44;75.67;97491.97;4992720;28;20085;-75
2023/10/15 04:56:39;;;;;;;0.52;0.52;;;;;;;6.45;75.21;97493.63;4992518;28;21318;-75
2023/10/15 04:59:06;;;;;;;0.70;0.70;;;;;;;6.45;75.35;97494.44;4992586;28;20046;-76
2023/10/15 05:01:36;;;;;;;0.52;0.52;;;;;;;6.42;75.40;97486.03;4992379;28;20042;-76
2023/10/15 05:04:04;;;;;;;0.73;0.73;;;;;;;6.45;75.14;97489.16;4992372;28;20041;-75
2023/10/15 05:06:33;;;;;;;0.70;0.70;;;;;;;6.38;75.35;97490.84;4993045;28;20050;-77
2023/10/15 05:09:01;;;;;;;0.93;0.93;;;;;;;6.41;75.35;97485.19;4990889;28;20095;-75
2023/10/15 05:11:29;;;;;;;0.75;0.75;;;;;;;6.34;75.42;97486.03;4992147;28;20066;-76
2023/10/15 05:13:56;;;;;;;0.60;0.60;;;;;;;6.39;75.09;97481.88;4992126;28;20401;-76
2023/10/15 05:16:24;;;;;;;0.93;0.93;;;;;;;6.39;75.30;97481.88;4994160;28;20052;-75
2023/10/15 05:18:53;;;;;;;0.60;0.60;;;;;;;6.41;75.08;97482.56;4996126;28;20042;-76
2023/10/15 05:21:21;;;;;;;0.88;0.88;;;;;;;6.28;75.72;97490.22;4994256;28;20056;-74
2023/10/15 05:23:48;;;;;;;0.82;0.82;;;;;;;6.35;75.40;97487.69;4992290;28;20046;-75
2023/10/15 05:26:19;;;;;;;0.93;0.93;;;;;;;6.21;75.88;97482.13;4988974;28;20133;-75
2023/10/15 05:28:48;;;;;;;0.43;0.43;;;;;;;6.24;75.74;97484.41;4990791;28;20137;-75
2023/10/15 05:31:16;;;;;;;0.55;0.55;;;;;;;6.15;76.05;97484.59;4990245;28;20061;-74
2023/10/15 05:33:43;;;;;;;0.70;0.70;;;;;;;6.05;76.44;97483.97;4994819;28;20049;-75
2023/10/15 05:36:12;;;;;;;0.77;0.77;;;;;;;6.04;76.49;97487.59;4991235;28;20482;-80
2023/10/15 05:38:40;;;;;;;0.60;0.60;;;;;;;5.96;77.06;97490.28;4990623;28;20121;-74
2023/10/15 05:41:09;;;;;;;0.60;0.60;;;;;;;5.94;77.06;97489.63;4992388;28;20482;-75
2023/10/15 05:43:37;;;;;;;0.73;0.73;;;;;;;5.86;77.70;97496.56;4992026;28;20060;-75
2023/10/15 05:46:04;;;;;;;0.75;0.75;;;;;;;5.92;77.26;97502.22;4991734;28;20109;-75
2023/10/15 05:48:32;;;;;;;0.73;0.73;;;;;;;5.81;77.86;97504.16;4991064;28;20045;-74
2023/10/15 05:51:01;;;;;;;0.70;0.70;;;;;;;5.80;77.73;97507.84;4991712;28;20062;-76
2023/10/15 05:53:32;;;;;;;0.60;0.60;;;;;;;5.67;78.08;97511.97;4990303;28;20054;-73
2023/10/15 05:56:00;;;;;;;0.60;0.60;;;;;;;5.74;78.02;97512.94;4991008;28;20046;-72
2023/10/15 05:58:27;;;;;;;0.80;0.80;;;;;;;5.73;77.91;97506.00;4988811;28;20049;-75
2023/10/15 06:00:55;;;;;;;0.70;0.70;;;;;;;5.71;78.26;97515.94;4989867;28;20042;-73
2023/10/15 06:03:23;;;;;;;0.65;0.65;;;;;;;5.67;78.07;97509.31;4989751;28;20613;-76
2023/10/15 06:05:51;;;;;;;0.73;0.73;;;;;;;5.69;77.93;97516.09;4990602;28;20046;-73
2023/10/15 06:08:19;;;;;;;0.80;0.80;;;;;;;5.66;78.06;97507.66;4987794;28;20050;-74
2023/10/15 06:10:48;;;;;;;0.70;0.70;;;;;;;5.71;78.15;97518.59;4990164;28;20105;-73
2023/10/15 06:13:16;;;;;;;0.70;0.70;;;;;;;5.72;77.88;97514.94;4988770;28;20970;-73
2023/10/15 06:15:44;;;;;;;0.50;0.50;;;;;;;5.82;77.46;97518.22;4990286;28;20038;-74
2023/10/15 06:18:11;;;;;;;0.50;0.50;;;;;;;5.82;77.44;97516.41;4990439;28;20037;-74
2023/10/15 06:20:40;;;;;;;0.70;0.70;;;;;;;5.93;77.19;97527.69;4990404;28;20050;-74
2023/10/15 06:23:08;;;;;;;1.17;1.17;;;;;;;5.90;77.49;97526.22;4990087;28;20128;-74
2023/10/15 06:25:38;;;;;;;0.70;0.70;;;;;;;5.91;77.51;97521.75;4990762;28;20050;-74
2023/10/15 06:28:07;;;;;;;0.80;0.80;;;;;;;5.94;77.42;97526.69;4990965;28;20456;-74
2023/10/15 06:30:35;;;;;;;0.60;0.60;;;;;;;5.93;77.43;97527.69;4989949;28;20054;-74
2023/10/15 06:33:03;;;;;;;0.80;0.80;;;;;;;5.99;77.39;97529.69;4990284;28;20511;-76
2023/10/15 06:35:30;;;;;;;0.93;0.93;;;;;;;6.03;77.24;97534.47;4989480;28;20513;-76
2023/10/15 06:37:58;;;;;;;0.65;0.65;;;;;;;6.08;77.02;97542.75;4991325;28;20096;-76
2023/10/15 06:40:27;;;;;;;0.50;0.50;;;;;;;6.12;76.97;97541.44;4996800;28;20054;-75
2023/10/15 06:43:00;;;;;;;0.80;0.80;;;;;;;6.09;76.71;97535.63;4996855;28;20042;-75
2023/10/15 06:45:31;;;;;;;0.50;0.50;;;;;;;6.16;76.86;97544.56;4995707;28;20050;-76
2023/10/15 06:48:00;;;;;;;1.05;1.05;;;;;;;6.20;76.72;97538.75;4995480;28;20049;-75
2023/10/15 06:50:28;;;;;;;0.70;0.70;;;;;;;6.24;76.69;97534.75;4993841;28;20133;-75
2023/10/15 06:52:56;;;;;;;0.30;0.30;;;;;;;6.25;76.52;97546.19;4992799;28;20597;-75
2023/10/15 06:55:24;;;;;;;0.73;0.73;;;;;;;6.28;76.58;97545.03;4992779;28;20841;-76
2023/10/15 06:57:51;;;;;;;0.63;0.63;;;;;;;6.30;76.45;97546.53;4992853;28;20509;-76
2023/10/15 07:00:22;;;;;;;0.80;0.80;;;;;;;6.38;76.38;97541.19;4991429;28;20044;-76
2023/10/15 07:02:52;;;;;;;0.90;0.90;;;;;;;6.47;76.08;97545.47;4991611;28;20104;-75
2023/10/15 07:05:21;;;;;;;0.68;0.68;;;;;;;6.47;75.97;97547.31;4993370;28;20049;-77
2023/10/15 07:07:51;;;;;;;0.73;0.73;;;;;;;6.52;76.15;97550.28;4995102;28;20046;-75
2023/10/15 07:10:19;;;;;;;0.70;0.70;;;;;;;6.57;76.00;97555.88;4993308;28;20058;-75
2023/10/15 07:12:47;;;;;;;0.60;0.60;;;;;;;6.57;75.72;97559.38;4994573;28;20038;-74
2023/10/15 07:15:16;;;;;;;0.80;0.80;;;;;;;6.65;75.69;97555.84;4994226;28;20049;-74
2023/10/15 07:17:45;;;;;;;0.60;0.60;;;;;;;6.70;75.52;97561.50;4993902;28;20125;-75
2023/10/15 07:20:18;;;;;;;0.85;0.85;;;;;;;6.70;75.19;97547.41;4994212;28;20073;-74
2023/10/15 07:22:48;;;;;;;0.70;0.70;;;;;;;6.74;74.89;97551.38;4994069;28;20049;-75
2023/10/15 07:25:17;;;;;;;0.65;0.65;;;;;;;6.82;74.79;97554.81;4993659;28;20104;-75
2023/10/15 07:27:46;;;;;;;0.75;0.75;;;;;;;6.95;73.58;97559.59;4992928;28;20049;-74
2023/10/15 07:30:15;;;;;;;0.77;0.77;;;;;;;7.04;73.95;97560.38;4993828;28;20074;-74
2023/10/15 07:32:45;;;;;;;0.80;0.80;;;;;;;7.06;72.68;97550.41;4993212;28;20089;-74
2023/10/15 07:35:15;;;;;;;0.82;0.82;;;;;;;7.15;71.83;97546.72;4993462;28;20047;-76
2023/10/15 07:37:45;;;;;;;0.50;0.50;;;;;;;7.21;71.65;97543.34;4993806;28;20050;-75
2023/10/15 07:40:17;;;;;;;0.85;0.85;;;;;;;7.29;72.48;97544.13;4994674;28;20046;-72
2023/10/15 07:42:48;;;;;;;0.70;0.70;;;;;;;7.33;71.50;97542.78;4994365;28;20065;-74
2023/10/15 07:45:17;;;;;;;0.68;0.68;;;;;;;7.38;70.48;97542.22;4992097;28;20166;-73
2023/10/15 07:47:45;;;;;;;0.73;0.73;;;;;;;7.43;70.20;97537.25;4992154;28;20046;-71
2023/10/15 07:50:16;;;;;;;0.75;0.75;;;;;;;7.52;69.63;97538.84;4992148;28;20050;-75
2023/10/15 07:52:45;;;;;;;0.70;0.70;;;;;;;7.56;68.92;97534.81;4993156;28;20050;-75
2023/10/15 07:55:13;;;;;;;0.75;0.75;;;;;;;7.56;69.24;97532.19;4992676;28;20046;-75
2023/10/15 07:57:41;;;;;;;0.60;0.60;;;;;;;7.67;68.79;97539.72;4992906;28;20043;-74
2023/10/15 08:00:14;;;;;;;0.73;0.73;;;;;;;7.74;68.94;97534.53;4992551;28;20038;-74
2023/10/15 08:02:43;;;;;;;0.65;0.65;;;;;;;7.84;68.52;97532.44;4993591;28;20038;-74
2023/10/15 08:05:11;;;;;;;0.52;0.52;;;;;;;7.83;67.56;97530.78;4992496;28;20042;-75
2023/10/15 08:07:41;;;;;;;0.68;0.68;;;;;;;7.76;66.98;97527.22;4993322;28;20057;-74
2023/10/15 08:10:11;;;;;;;0.98;0.98;;;;;;;7.82;68.16;97523.00;4993402;28;20042;-75
2023/10/15 08:12:38;;;;;;;0.65;0.65;;;;;;;7.89;68.18;97522.09;4990626;28;20477;-73
2023/10/15 08:15:07;;;;;;;0.73;0.73;;;;;;;7.94;66.48;97522.38;4991482;28;20045;-74
2023/10/15 08:17:35;;;;;;;0.82;0.82;;;;;;;7.97;66.99;97527.34;4993865;28;20046;-74
2023/10/15 08:20:04;;;;;;;0.70;0.70;;;;;;;8.08;68.04;97520.78;4996852;28;20054;-74
2023/10/15 08:22:32;;;;;;;0.75;0.75;;;;;;;8.14;67.14;97522.69;4997806;28;20054;-74
2023/10/15 08:25:02;;;;;;;0.77;0.77;;;;;;;8.19;66.89;97538.94;4995461;28;20057;-74
2023/10/15 08:27:30;;;;;;;0.57;0.57;;;;;;;8.16;66.51;97519.88;4991254;28;20061;-74
2023/10/15 08:29:57;;;;;;;0.85;0.85;;;;;;;8.20;66.03;97529.16;4990878;28;20038;-74
2023/10/15 08:32:26;;;;;;;0.73;0.73;;;;;;;8.24;65.50;97520.59;4992569;28;20052;-73
2023/10/15 08:34:54;;;;;;;0.70;0.70;;;;;;;8.24;65.23;97520.59;4992546;28;20038;-74
2023/10/15 08:37:23;;;;;;;0.30;0.30;;;;;;;8.25;64.90;97521.44;4991114;28;20640;-73
2023/10/15 08:39:50;;;;;;;0.98;0.80;;;;;;;8.28;64.93;97518.41;4991974;28;20038;-73
2023/10/15 08:42:23;;;;;;;0.77;0.77;;;;;;;8.31;65.64;97526.00;4993445;28;20050;-73
2023/10/15 08:44:50;;;;;;;;;;;;;;;8.36;65.28;97523.69;4992624;28;20058;-73
2023/10/15 08:47:18;;;;;;;0.68;0.68;;;;;;;8.34;65.33;97526.50;4992537;28;19944;-73
2023/10/15 08:49:47;;;;;;;0.57;0.57;;;;;;;8.44;64.88;97534.22;4991783;28;20097;-73
2023/10/15 08:52:15;;;;;;;0.77;0.77;;;;;;;8.45;65.05;97527.91;4989461;28;20117;-73
2023/10/15 08:54:44;;;;;;;0.63;0.63;;;;;;;8.35;64.79;97522.84;4991496;28;20050;-73
2023/10/15 08:57:14;;;;;;;0.50;0.50;;;;;;;8.49;64.78;97531.03;4991038;28;20492;-74
2023/10/15 08:59:44;;;;;;;0.90;0.90;;;;;;;8.62;64.45;97528.53;4992171;28;20042;-74
2023/10/15 09:02:13;;;;;;;0.82;0.82;;;;;;;8.81;63.43;97520.00;4990491;28;20038;-74
2023/10/15 09:04:44;;;;;;;0.90;0.90;;;;;;;8.85;63.54;97526.59;4991152;28;20486;-74
2023/10/15 09:07:14;;;;;;;0.60;0.60;;;;;;;8.98;62.65;97521.44;4991289;28;20038;-74
2023/10/15 09:09:43;;;;;;;0.63;0.60;;;;;;;9.07;62.02;97527.47;4990887;28;20074;-74
2023/10/15 09:12:12;;;;;;;0.40;0.40;;;;;;;9.06;61.98;97516.00;4990576;28;20374;-74
2023/10/15 09:14:42;;;;;;;1.20;1.20;;;;;;;9.13;61.35;97522.25;4991769;28;20050;-73
2023/10/15 09:17:14;;;;;;;0.73;0.73;;;;;;;9.28;61.68;97530.19;4988865;28;20050;-74
2023/10/15 09:19:43;;;;;;;0.60;0.60;;;;;;;9.37;61.56;97528.22;4989132;28;20042;-74
2023/10/15 09:22:14;;;;;;;0.60;0.60;;;;;;;9.41;60.39;97514.34;4994422;28;20053;-74
2023/10/15 09:24:42;;;;;;;0.52;0.52;;;;;;;9.44;60.26;97524.66;4991559;28;20050;-74
2023/10/15 09:27:10;;;;;;;0.60;0.60;;;;;;;9.54;59.85;97527.00;4992915;28;20081;-74
2023/10/15 09:29:38;;;;;;;0.50;0.50;;;;;;;9.61;59.56;97517.22;4991472;28;20133;-74
2023/10/15 09:32:06;;;;;;;0.52;0.52;;;;;;;9.94;58.11;97514.84;4991864;28;20058;-74
2023/10/15 09:34:37;;;;;;;0.65;0.65;;;;;;;10.11;57.77;97518.88;4991496;28;20050;-74
2023/10/15 09:37:06;;;;;;;0.60;0.60;;;;;;;10.07;56.96;97522.94;4992175;28;20053;-74
2023/10/15 09:39:35;;;;;;;0.50;0.50;;;;;;;10.13;56.92;97527.53;4989061;28;20046;-74
2023/10/15 09:42:03;;;;;;;0.70;0.70;;;;;;;10.12;55.23;97519.72;4993411;28;20054;-74
2023/10/15 09:44:33;;;;;;;0.50;0.50;;;;;;;10.20;55.94;97525.75;4991930;28;20054;-74
2023/10/15 09:47:01;;;;;;;0.60;0.60;;;;;;;10.00;55.82;97523.91;4992098;28;20046;-74
2023/10/15 09:49:31;;;;;;;0.38;0.38;;;;;;;9.66;55.81;97525.44;4989894;28;20402;-74
2023/10/15 09:52:03;;;;;;;0.57;0.57;;;;;;;9.51;56.69;97522.88;4989831;28;20043;-74
2023/10/15 09:54:33;;;;;;;0.60;0.60;;;;;;;9.33;57.60;97537.63;4991073;28;20046;-71
2023/10/15 09:57:01;;;;;;;0.60;0.60;;;;;;;9.36;57.59;97537.22;4990810;28;20046;-74
2023/10/15 09:59:30;;;;;;;0.65;0.65;;;;;;;9.30;57.41;97535.34;4989231;28;20042;-74
2023/10/15 10:02:05;;;;;;;0.73;0.73;;;;;;;9.29;57.95;97539.84;4991523;28;20040;-74
2023/10/15 10:04:56;;;;;;;0.63;0.63;;;;;;;9.25;57.29;97537.72;4988954;28;20092;-74
2023/10/15 10:07:35;;;;;;;;;;;;;;;9.28;57.02;97538.19;4991197;28;20040;-72
2023/10/15 10:10:39;;;;;;;1.13;1.13;;;;;;;9.32;56.99;97530.66;4990771;28;19929;-74
2023/10/15 10:13:32;;;;;;;1.13;0.77;;;;;;;9.36;57.24;97526.56;4990352;28;20061;-74
2023/10/15 10:16:01;;;;;;;0.50;0.50;;;;;;;9.47;57.34;97526.09;4991092;28;20061;-74
2023/10/15 10:18:33;;;;;;;0.52;0.52;;;;;;;9.45;56.83;97518.28;4990965;28;20126;-74
2023/10/15 10:21:07;;;;;;;0.70;0.70;;;;;;;9.50;57.10;97515.06;4991036;28;20044;-74
2023/10/15 10:23:36;;;;;;;0.60;0.60;;;;;;;9.52;56.92;97507.72;4991841;28;20050;-73
2023/10/15 10:26:16;;;;;;;0.63;0.63;;;;;;;9.57;56.98;97505.28;4990696;28;20571;-74
2023/10/15 10:28:44;;;;;;;0.73;0.73;;;;;;;9.81;56.83;97504.91;4990652;28;20457;-74
2023/10/15 10:31:13;;;;;;;0.60;0.60;;;;;;;10.00;56.42;97489.25;4989298;28;20054;-74
2023/10/15 10:33:49;;;;;;;0.32;0.32;;;;;;;10.03;55.99;97487.03;4988620;28;20285;-74
2023/10/15 10:36:18;;;;;;;0.60;0.60;;;;;;;10.06;55.97;97477.84;4989620;28;20070;-74
2023/10/15 10:39:00;;;;;;;0.40;0.40;;;;;;;10.10;56.00;97477.22;4991474;28;20048;-75
2023/10/15 10:41:34;;;;;;;0.68;0.68;;;;;;;10.35;54.75;97474.97;4990210;28;20510;-74
2023/10/15 10:44:02;;;;;;;0.40;0.40;;;;;;;10.18;55.25;97471.78;4991775;28;20129;-74
2023/10/15 10:46:52;;;;;;;0.45;0.45;;;;;;;10.19;55.65;97464.59;4993805;28;20041;-74
2023/10/15 10:49:30;;;;;;;0.68;0.68;;;;;;;10.09;56.80;97477.41;4990414;28;20045;-74
2023/10/15 10:52:05;;;;;;;0.50;0.50;;;;;;;9.80;60.37;97499.75;4990531;28;20060;-74
2023/10/15 10:54:36;;;;;;;0.50;0.50;;;;;;;9.46;63.77;97495.94;4989272;28;20052;-74
2023/10/15 10:57:08;;;;;;;0.70;0.70;;;;;;;9.14;67.19;97499.91;4990814;28;20101;-74
2023/10/15 10:59:37;;;;;;;0.68;0.68;;;;;;;8.90;65.43;97499.44;4990250;28;20080;-75
2023/10/15 11:02:11;;;;;;;0.70;0.70;;;;;;;8.83;67.70;97502.81;4987588;28;20046;-74
2023/10/15 11:04:40;;;;;;;0.60;0.60;;;;;;;8.79;68.14;97506.88;4990191;28;20482;-74
2023/10/15 11:07:09;;;;;;;0.55;0.55;;;;;;;8.57;68.62;97507.81;4990137;28;20042;-74
2023/10/15 11:09:38;;;;;;;0.73;0.73;;;;;;;8.56;70.30;97508.81;4989715;28;20054;-74
2023/10/15 11:12:09;;;;;;;0.75;0.75;;;;;;;8.59;69.39;97510.31;4990962;28;20117;-74
2023/10/15 11:14:37;;;;;;;0.52;0.52;;;;;;;8.53;70.23;97501.22;4990886;28;20050;-74
2023/10/15 11:17:07;;;;;;;0.22;0.22;;;;;;;8.41;70.89;97500.84;4990915;28;20378;-74
2023/10/15 11:19:36;;;;;;;0.70;0.70;;;;;;;8.57;71.81;97499.84;4990092;28;20061;-73
2023/10/15 11:22:04;;;;;;;0.63;0.63;;;;;;;8.71;71.31;97495.53;4995180;28;20098;-73
2023/10/15 11:24:32;;;;;;;0.55;0.55;;;;;;;8.92;69.06;97489.44;5000836;28;20046;-73
2023/10/15 11:27:06;;;;;;;0.60;0.60;;;;;;;9.60;65.25;97485.44;4999002;28;20046;-73
2023/10/15 11:29:35;;;;;;;0.25;0.25;;;;;;;9.99;62.99;97493.75;4994094;28;20412;-73
2023/10/15 11:32:03;;;;;;;0.65;0.65;;;;;;;10.34;63.51;97494.66;4995245;28;20108;-73
2023/10/15 11:34:33;;;;;;;0.65;0.65;;;;;;;10.18;63.04;97514.44;4993026;28;20133;-73
2023/10/15 11:37:02;;;;;;;0.32;0.32;;;;;;;9.76;62.98;97535.81;4993835;28;20406;-73
2023/10/15 11:39:37;;;;;;;0.45;0.45;;;;;;;8.95;66.44;97561.75;4993985;28;20129;-73
2023/10/15 11:42:08;;;;;;;0.50;0.50;;;;;;;8.44;70.32;97569.63;4994069;28;20057;-73
2023/10/15 11:44:38;;;;;;;0.50;0.50;;;;;;;8.10;71.84;97555.97;4994514;28;20057;-73
2023/10/15 11:47:11;;;;;;;0.70;0.70;;;;;;;8.09;72.15;97552.50;4994333;28;20065;-73
2023/10/15 11:49:42;;;;;;;0.50;0.50;;;;;;;8.18;72.31;97558.56;4994661;28;20053;-73
2023/10/15 11:52:14;;;;;;;0.60;0.60;;;;;;;8.07;74.54;97559.81;4994176;28;20046;-73
2023/10/15 11:54:48;;;;;;;0.52;0.52;;;;;;;7.82;74.20;97557.53;4993312;28;20051;-73
2023/10/15 11:57:22;;;;;;;0.60;0.60;;;;;;;7.71;75.77;97564.09;4993905;28;20046;-73